sensor_id;sensor_type;location;lat;lon;timestamp;temperature;humidity
16301;DHT22;8258;51.020;4.248;2022-11-21T00:00:48;6.10;99.90
16301;DHT22;8258;51.020;4.248;2022-11-21T00:03:15;6.10;99.90
16301;DHT22;8258;51.020;4.248;2022-11-21T00:05:45;6.10;99.90
16301;DHT22;8258;51.020;4.248;2022-11-21T00:08:14;6.10;99.90
16301;DHT22;8258;51.020;4.248;2022-11-21T00:10:42;6.10;99.90
16301;DHT22;8258;51.020;4.248;2022-11-21T00:13:12;6.10;99.90
16301;DHT22;8258;51.020;4.248;2022-11-21T00:15:40;6.20;99.90
16301;DHT22;8258;51.020;4.248;2022-11-21T00:18:08;6.30;99.90
16301;DHT22;8258;51.020;4.248;2022-11-21T00:20:36;6.30;99.90
16301;DHT22;8258;51.020;4.248;2022-11-21T00:23:03;6.20;99.90
16301;DHT22;8258;51.020;4.248;2022-11-21T00:25:30;6.20;99.90
16301;DHT22;8258;51.020;4.248;2022-11-21T00:27:57;6.20;99.90
16301;DHT22;8258;51.020;4.248;2022-11-21T00:30:24;6.30;99.90
16301;DHT22;8258;51.020;4.248;2022-11-21T00:32:52;6.30;99.90
16301;DHT22;8258;51.020;4.248;2022-11-21T00:35:19;6.40;99.90
16301;DHT22;8258;51.020;4.248;2022-11-21T00:37:46;6.50;99.90
16301;DHT22;8258;51.020;4.248;2022-11-21T00:40:15;6.50;99.90
16301;DHT22;8258;51.020;4.248;2022-11-21T00:42:42;6.60;99.90
16301;DHT22;8258;51.020;4.248;2022-11-21T00:45:10;6.60;99.90
16301;DHT22;8258;51.020;4.248;2022-11-21T00:47:37;6.50;99.90
16301;DHT22;8258;51.020;4.248;2022-11-21T00:50:06;6.50;99.90
16301;DHT22;8258;51.020;4.248;2022-11-21T00:52:32;6.40;99.90
16301;DHT22;8258;51.020;4.248;2022-11-21T00:54:59;6.40;99.90
16301;DHT22;8258;51.020;4.248;2022-11-21T00:57:27;6.40;99.90
16301;DHT22;8258;51.020;4.248;2022-11-21T00:59:54;6.40;99.90
16301;DHT22;8258;51.020;4.248;2022-11-21T01:02:21;6.40;99.90
16301;DHT22;8258;51.020;4.248;2022-11-21T01:04:48;6.40;99.90
16301;DHT22;8258;51.020;4.248;2022-11-21T01:07:16;6.40;99.90
16301;DHT22;8258;51.020;4.248;2022-11-21T01:09:43;6.40;99.90
16301;DHT22;8258;51.020;4.248;2022-11-21T01:12:09;6.30;99.90
16301;DHT22;8258;51.020;4.248;2022-11-21T01:14:36;6.30;99.90
16301;DHT22;8258;51.020;4.248;2022-11-21T01:17:03;6.20;99.90
16301;DHT22;8258;51.020;4.248;2022-11-21T01:19:30;6.10;99.90
16301;DHT22;8258;51.020;4.248;2022-11-21T01:21:57;6.10;99.90
16301;DHT22;8258;51.020;4.248;2022-11-21T01:24:25;6.10;99.90
16301;DHT22;8258;51.020;4.248;2022-11-21T01:26:52;6.10;99.90
16301;DHT22;8258;51.020;4.248;2022-11-21T01:29:19;6.10;99.90
16301;DHT22;8258;51.020;4.248;2022-11-21T01:31:46;6.20;99.90
16301;DHT22;8258;51.020;4.248;2022-11-21T01:34:14;6.20;99.90
16301;DHT22;8258;51.020;4.248;2022-11-21T01:36:41;6.30;99.90
16301;DHT22;8258;51.020;4.248;2022-11-21T01:39:10;6.30;99.90
16301;DHT22;8258;51.020;4.248;2022-11-21T01:41:40;6.40;99.90
16301;DHT22;8258;51.020;4.248;2022-11-21T01:44:15;6.40;99.90
16301;DHT22;8258;51.020;4.248;2022-11-21T01:46:42;6.40;99.90
16301;DHT22;8258;51.020;4.248;2022-11-21T01:49:11;6.40;99.90
16301;DHT22;8258;51.020;4.248;2022-11-21T01:51:42;6.50;99.90
16301;DHT22;8258;51.020;4.248;2022-11-21T01:54:13;6.50;99.90
16301;DHT22;8258;51.020;4.248;2022-11-21T01:56:44;6.50;99.90
16301;DHT22;8258;51.020;4.248;2022-11-21T01:59:16;6.50;99.90
16301;DHT22;8258;51.020;4.248;2022-11-21T02:01:45;6.50;99.90
16301;DHT22;8258;51.020;4.248;2022-11-21T02:04:13;6.60;99.90
16301;DHT22;8258;51.020;4.248;2022-11-21T02:06:40;6.60;99.90
16301;DHT22;8258;51.020;4.248;2022-11-21T02:09:07;6.60;99.90
16301;DHT22;8258;51.020;4.248;2022-11-21T02:11:36;6.60;99.90
16301;DHT22;8258;51.020;4.248;2022-11-21T02:14:07;6.60;99.90
16301;DHT22;8258;51.020;4.248;2022-11-21T02:16:35;6.60;99.90
16301;DHT22;8258;51.020;4.248;2022-11-21T02:19:02;6.60;99.90
16301;DHT22;8258;51.020;4.248;2022-11-21T02:21:39;6.70;99.90
16301;DHT22;8258;51.020;4.248;2022-11-21T02:24:15;6.70;99.90
16301;DHT22;8258;51.020;4.248;2022-11-21T02:26:45;6.60;99.90
16301;DHT22;8258;51.020;4.248;2022-11-21T02:29:15;6.70;99.90
16301;DHT22;8258;51.020;4.248;2022-11-21T02:31:41;6.60;99.90
16301;DHT22;8258;51.020;4.248;2022-11-21T02:34:08;6.70;99.90
16301;DHT22;8258;51.020;4.248;2022-11-21T02:36:40;6.70;99.90
16301;DHT22;8258;51.020;4.248;2022-11-21T02:39:10;6.60;99.90
16301;DHT22;8258;51.020;4.248;2022-11-21T02:41:44;6.60;99.90
16301;DHT22;8258;51.020;4.248;2022-11-21T02:44:19;6.50;99.90
16301;DHT22;8258;51.020;4.248;2022-11-21T02:46:48;6.60;99.90
16301;DHT22;8258;51.020;4.248;2022-11-21T02:49:21;6.60;99.90
16301;DHT22;8258;51.020;4.248;2022-11-21T02:51:48;6.60;99.90
16301;DHT22;8258;51.020;4.248;2022-11-21T02:54:15;6.60;99.90
16301;DHT22;8258;51.020;4.248;2022-11-21T02:56:43;6.50;99.90
16301;DHT22;8258;51.020;4.248;2022-11-21T02:59:10;6.50;99.90
16301;DHT22;8258;51.020;4.248;2022-11-21T03:01:37;6.50;99.90
16301;DHT22;8258;51.020;4.248;2022-11-21T03:04:04;6.50;99.90
16301;DHT22;8258;51.020;4.248;2022-11-21T03:06:31;6.50;99.90
16301;DHT22;8258;51.020;4.248;2022-11-21T03:08:57;6.50;99.90
16301;DHT22;8258;51.020;4.248;2022-11-21T03:11:24;6.50;99.90
16301;DHT22;8258;51.020;4.248;2022-11-21T03:13:52;6.50;99.90
16301;DHT22;8258;51.020;4.248;2022-11-21T03:16:19;6.40;99.90
16301;DHT22;8258;51.020;4.248;2022-11-21T03:18:46;6.30;99.90
16301;DHT22;8258;51.020;4.248;2022-11-21T03:21:13;6.30;99.90
16301;DHT22;8258;51.020;4.248;2022-11-21T03:23:40;6.40;99.90
16301;DHT22;8258;51.020;4.248;2022-11-21T03:26:07;6.40;99.90
16301;DHT22;8258;51.020;4.248;2022-11-21T03:28:34;6.30;99.90
16301;DHT22;8258;51.020;4.248;2022-11-21T03:31:02;6.30;99.90
16301;DHT22;8258;51.020;4.248;2022-11-21T03:33:29;6.30;99.90
16301;DHT22;8258;51.020;4.248;2022-11-21T03:35:55;6.30;99.90
16301;DHT22;8258;51.020;4.248;2022-11-21T03:38:22;6.20;99.90
16301;DHT22;8258;51.020;4.248;2022-11-21T03:40:49;6.10;99.90
16301;DHT22;8258;51.020;4.248;2022-11-21T03:43:16;6.10;99.90
16301;DHT22;8258;51.020;4.248;2022-11-21T03:45:45;6.10;99.90
16301;DHT22;8258;51.020;4.248;2022-11-21T03:48:14;6.10;99.90
16301;DHT22;8258;51.020;4.248;2022-11-21T03:50:41;6.10;99.90
16301;DHT22;8258;51.020;4.248;2022-11-21T03:53:09;6.10;99.90
16301;DHT22;8258;51.020;4.248;2022-11-21T03:55:35;6.20;99.90
16301;DHT22;8258;51.020;4.248;2022-11-21T03:58:02;6.20;99.90
16301;DHT22;8258;51.020;4.248;2022-11-21T04:00:29;6.20;99.90
16301;DHT22;8258;51.020;4.248;2022-11-21T04:02:56;6.20;99.90
16301;DHT22;8258;51.020;4.248;2022-11-21T04:05:24;6.20;99.90
16301;DHT22;8258;51.020;4.248;2022-11-21T04:07:51;6.20;99.90
16301;DHT22;8258;51.020;4.248;2022-11-21T04:10:18;6.20;99.90
16301;DHT22;8258;51.020;4.248;2022-11-21T04:12:45;6.20;99.90
16301;DHT22;8258;51.020;4.248;2022-11-21T04:15:12;6.10;99.90
16301;DHT22;8258;51.020;4.248;2022-11-21T04:17:39;6.10;99.90
16301;DHT22;8258;51.020;4.248;2022-11-21T04:20:06;6.10;99.90
16301;DHT22;8258;51.020;4.248;2022-11-21T04:22:35;6.10;99.90
16301;DHT22;8258;51.020;4.248;2022-11-21T04:25:02;6.10;99.90
16301;DHT22;8258;51.020;4.248;2022-11-21T04:27:29;6.10;99.90
16301;DHT22;8258;51.020;4.248;2022-11-21T04:29:56;6.20;99.90
16301;DHT22;8258;51.020;4.248;2022-11-21T04:32:23;6.20;99.90
16301;DHT22;8258;51.020;4.248;2022-11-21T04:34:50;6.20;99.90
16301;DHT22;8258;51.020;4.248;2022-11-21T04:37:16;6.20;99.90
16301;DHT22;8258;51.020;4.248;2022-11-21T04:39:45;6.10;99.90
16301;DHT22;8258;51.020;4.248;2022-11-21T04:42:12;6.10;99.90
16301;DHT22;8258;51.020;4.248;2022-11-21T04:44:38;6.10;99.90
16301;DHT22;8258;51.020;4.248;2022-11-21T04:47:05;6.20;99.90
16301;DHT22;8258;51.020;4.248;2022-11-21T04:49:32;6.20;99.90
16301;DHT22;8258;51.020;4.248;2022-11-21T04:51:59;6.20;99.90
16301;DHT22;8258;51.020;4.248;2022-11-21T04:54:26;6.20;99.90
16301;DHT22;8258;51.020;4.248;2022-11-21T04:56:54;6.10;99.90
16301;DHT22;8258;51.020;4.248;2022-11-21T04:59:21;6.10;99.90
16301;DHT22;8258;51.020;4.248;2022-11-21T05:01:48;6.00;99.90
16301;DHT22;8258;51.020;4.248;2022-11-21T05:04:14;5.90;99.90
16301;DHT22;8258;51.020;4.248;2022-11-21T05:06:41;5.80;99.90
16301;DHT22;8258;51.020;4.248;2022-11-21T05:09:08;5.70;99.90
16301;DHT22;8258;51.020;4.248;2022-11-21T05:11:35;5.70;99.90
16301;DHT22;8258;51.020;4.248;2022-11-21T05:14:21;5.70;99.90
16301;DHT22;8258;51.020;4.248;2022-11-21T05:16:50;5.60;99.90
16301;DHT22;8258;51.020;4.248;2022-11-21T05:19:17;5.60;99.90
16301;DHT22;8258;51.020;4.248;2022-11-21T05:21:44;5.60;99.90
16301;DHT22;8258;51.020;4.248;2022-11-21T05:24:11;5.50;99.90
16301;DHT22;8258;51.020;4.248;2022-11-21T05:26:38;5.50;99.90
16301;DHT22;8258;51.020;4.248;2022-11-21T05:29:04;5.50;99.90
16301;DHT22;8258;51.020;4.248;2022-11-21T05:31:33;5.50;99.90
16301;DHT22;8258;51.020;4.248;2022-11-21T05:34:00;5.40;99.90
16301;DHT22;8258;51.020;4.248;2022-11-21T05:36:26;5.30;99.90
16301;DHT22;8258;51.020;4.248;2022-11-21T05:38:53;5.20;99.90
16301;DHT22;8258;51.020;4.248;2022-11-21T05:41:20;5.10;99.90
16301;DHT22;8258;51.020;4.248;2022-11-21T05:43:47;5.10;99.90
16301;DHT22;8258;51.020;4.248;2022-11-21T05:46:16;5.00;99.90
16301;DHT22;8258;51.020;4.248;2022-11-21T05:48:45;5.00;99.90
16301;DHT22;8258;51.020;4.248;2022-11-21T05:51:13;5.00;99.90
16301;DHT22;8258;51.020;4.248;2022-11-21T05:53:40;4.90;99.90
16301;DHT22;8258;51.020;4.248;2022-11-21T05:56:08;4.90;99.90
16301;DHT22;8258;51.020;4.248;2022-11-21T05:58:36;4.80;99.90
16301;DHT22;8258;51.020;4.248;2022-11-21T06:01:04;4.80;99.90
16301;DHT22;8258;51.020;4.248;2022-11-21T06:03:34;4.70;99.90
16301;DHT22;8258;51.020;4.248;2022-11-21T06:06:04;4.60;99.90
16301;DHT22;8258;51.020;4.248;2022-11-21T06:08:32;4.60;99.90
16301;DHT22;8258;51.020;4.248;2022-11-21T06:11:00;4.60;99.90
16301;DHT22;8258;51.020;4.248;2022-11-21T06:13:27;4.50;99.90
16301;DHT22;8258;51.020;4.248;2022-11-21T06:15:58;4.50;99.90
16301;DHT22;8258;51.020;4.248;2022-11-21T06:18:26;4.40;99.90
16301;DHT22;8258;51.020;4.248;2022-11-21T06:20:53;4.40;99.90
16301;DHT22;8258;51.020;4.248;2022-11-21T06:23:21;4.30;99.90
16301;DHT22;8258;51.020;4.248;2022-11-21T06:25:55;4.30;99.90
16301;DHT22;8258;51.020;4.248;2022-11-21T06:28:22;4.30;99.90
16301;DHT22;8258;51.020;4.248;2022-11-21T06:30:49;4.30;99.90
16301;DHT22;8258;51.020;4.248;2022-11-21T06:33:17;4.20;99.90
16301;DHT22;8258;51.020;4.248;2022-11-21T06:35:44;4.20;99.90
16301;DHT22;8258;51.020;4.248;2022-11-21T06:38:11;4.20;99.90
16301;DHT22;8258;51.020;4.248;2022-11-21T06:40:40;4.20;99.90
16301;DHT22;8258;51.020;4.248;2022-11-21T06:43:07;4.10;99.90
16301;DHT22;8258;51.020;4.248;2022-11-21T06:45:34;4.10;99.90
16301;DHT22;8258;51.020;4.248;2022-11-21T06:48:01;4.00;99.90
16301;DHT22;8258;51.020;4.248;2022-11-21T06:50:29;4.00;99.90
16301;DHT22;8258;51.020;4.248;2022-11-21T06:52:56;4.00;99.90
16301;DHT22;8258;51.020;4.248;2022-11-21T06:55:24;3.90;99.90
16301;DHT22;8258;51.020;4.248;2022-11-21T06:57:56;3.90;99.90
16301;DHT22;8258;51.020;4.248;2022-11-21T07:00:23;3.80;99.90
16301;DHT22;8258;51.020;4.248;2022-11-21T07:02:50;3.80;99.90
16301;DHT22;8258;51.020;4.248;2022-11-21T07:05:17;3.80;99.90
16301;DHT22;8258;51.020;4.248;2022-11-21T07:07:44;3.80;99.90
16301;DHT22;8258;51.020;4.248;2022-11-21T07:10:11;3.90;99.90
16301;DHT22;8258;51.020;4.248;2022-11-21T07:12:37;3.90;99.90
16301;DHT22;8258;51.020;4.248;2022-11-21T07:15:23;3.90;99.90
16301;DHT22;8258;51.020;4.248;2022-11-21T07:17:50;3.90;99.90
16301;DHT22;8258;51.020;4.248;2022-11-21T07:20:17;3.90;99.90
16301;DHT22;8258;51.020;4.248;2022-11-21T07:22:44;4.00;99.90
16301;DHT22;8258;51.020;4.248;2022-11-21T07:25:10;4.00;99.90
16301;DHT22;8258;51.020;4.248;2022-11-21T07:27:37;4.00;99.90
16301;DHT22;8258;51.020;4.248;2022-11-21T07:30:05;4.00;99.90
16301;DHT22;8258;51.020;4.248;2022-11-21T07:32:33;4.00;99.90
16301;DHT22;8258;51.020;4.248;2022-11-21T07:35:00;4.00;99.90
16301;DHT22;8258;51.020;4.248;2022-11-21T07:37:27;4.00;99.90
16301;DHT22;8258;51.020;4.248;2022-11-21T07:39:54;4.10;99.90
16301;DHT22;8258;51.020;4.248;2022-11-21T07:42:21;4.50;99.90
16301;DHT22;8258;51.020;4.248;2022-11-21T07:44:48;4.90;99.90
16301;DHT22;8258;51.020;4.248;2022-11-21T07:47:15;5.40;99.90
16301;DHT22;8258;51.020;4.248;2022-11-21T07:49:43;5.90;99.90
16301;DHT22;8258;51.020;4.248;2022-11-21T07:52:10;6.30;99.90
16301;DHT22;8258;51.020;4.248;2022-11-21T07:54:37;6.60;99.90
16301;DHT22;8258;51.020;4.248;2022-11-21T07:57:04;6.90;99.90
16301;DHT22;8258;51.020;4.248;2022-11-21T07:59:31;7.10;99.90
16301;DHT22;8258;51.020;4.248;2022-11-21T08:01:57;7.00;99.90
16301;DHT22;8258;51.020;4.248;2022-11-21T08:04:24;6.60;99.90
16301;DHT22;8258;51.020;4.248;2022-11-21T08:06:53;6.40;99.90
16301;DHT22;8258;51.020;4.248;2022-11-21T08:09:20;6.60;99.90
16301;DHT22;8258;51.020;4.248;2022-11-21T08:11:47;6.80;99.90
16301;DHT22;8258;51.020;4.248;2022-11-21T08:14:14;6.90;99.90
16301;DHT22;8258;51.020;4.248;2022-11-21T08:16:41;7.20;99.90
16301;DHT22;8258;51.020;4.248;2022-11-21T08:19:07;7.20;99.90
16301;DHT22;8258;51.020;4.248;2022-11-21T08:21:34;6.90;99.90
16301;DHT22;8258;51.020;4.248;2022-11-21T08:24:03;6.50;99.90
16301;DHT22;8258;51.020;4.248;2022-11-21T08:26:30;6.20;99.90
16301;DHT22;8258;51.020;4.248;2022-11-21T08:28:56;6.10;99.90
16301;DHT22;8258;51.020;4.248;2022-11-21T08:31:23;6.10;99.90
16301;DHT22;8258;51.020;4.248;2022-11-21T08:33:54;6.10;99.90
16301;DHT22;8258;51.020;4.248;2022-11-21T08:36:21;6.10;99.90
16301;DHT22;8258;51.020;4.248;2022-11-21T08:38:48;6.20;99.90
16301;DHT22;8258;51.020;4.248;2022-11-21T08:41:17;6.10;99.90
16301;DHT22;8258;51.020;4.248;2022-11-21T08:44:01;6.10;99.90
16301;DHT22;8258;51.020;4.248;2022-11-21T08:46:28;6.10;99.90
16301;DHT22;8258;51.020;4.248;2022-11-21T08:48:58;6.10;99.90
16301;DHT22;8258;51.020;4.248;2022-11-21T08:51:25;6.10;99.90
16301;DHT22;8258;51.020;4.248;2022-11-21T08:53:52;6.50;99.90
16301;DHT22;8258;51.020;4.248;2022-11-21T08:56:20;7.10;99.90
16301;DHT22;8258;51.020;4.248;2022-11-21T08:58:47;7.60;99.90
16301;DHT22;8258;51.020;4.248;2022-11-21T09:01:14;8.00;99.90
16301;DHT22;8258;51.020;4.248;2022-11-21T09:03:41;8.20;99.90
16301;DHT22;8258;51.020;4.248;2022-11-21T09:06:08;8.50;99.90
16301;DHT22;8258;51.020;4.248;2022-11-21T09:08:35;8.60;99.90
16301;DHT22;8258;51.020;4.248;2022-11-21T09:11:03;8.50;99.90
16301;DHT22;8258;51.020;4.248;2022-11-21T09:13:32;8.50;99.90
16301;DHT22;8258;51.020;4.248;2022-11-21T09:15:59;8.40;99.90
16301;DHT22;8258;51.020;4.248;2022-11-21T09:18:55;8.30;99.90
16301;DHT22;8258;51.020;4.248;2022-11-21T09:21:22;8.50;99.90
16301;DHT22;8258;51.020;4.248;2022-11-21T09:23:49;8.80;99.90
16301;DHT22;8258;51.020;4.248;2022-11-21T09:26:16;9.20;99.90
16301;DHT22;8258;51.020;4.248;2022-11-21T09:28:44;9.20;99.90
16301;DHT22;8258;51.020;4.248;2022-11-21T09:31:11;9.20;99.90
16301;DHT22;8258;51.020;4.248;2022-11-21T09:33:38;9.10;99.90
16301;DHT22;8258;51.020;4.248;2022-11-21T09:36:05;9.00;99.90
16301;DHT22;8258;51.020;4.248;2022-11-21T09:38:32;9.40;99.90
16301;DHT22;8258;51.020;4.248;2022-11-21T09:41:08;9.60;99.90
16301;DHT22;8258;51.020;4.248;2022-11-21T09:44:08;9.80;99.90
16301;DHT22;8258;51.020;4.248;2022-11-21T09:46:42;10.30;99.90
16301;DHT22;8258;51.020;4.248;2022-11-21T09:49:12;10.60;99.90
16301;DHT22;8258;51.020;4.248;2022-11-21T09:51:40;10.90;99.90
16301;DHT22;8258;51.020;4.248;2022-11-21T09:54:15;10.60;99.90
16301;DHT22;8258;51.020;4.248;2022-11-21T09:56:44;10.60;99.90
16301;DHT22;8258;51.020;4.248;2022-11-21T09:59:26;10.20;99.90
16301;DHT22;8258;51.020;4.248;2022-11-21T10:01:55;9.80;99.90
16301;DHT22;8258;51.020;4.248;2022-11-21T10:04:22;9.60;99.90
16301;DHT22;8258;51.020;4.248;2022-11-21T10:06:55;9.50;99.90
16301;DHT22;8258;51.020;4.248;2022-11-21T10:09:40;9.60;99.90
16301;DHT22;8258;51.020;4.248;2022-11-21T10:12:17;9.60;99.90
16301;DHT22;8258;51.020;4.248;2022-11-21T10:15:17;9.70;99.90
16301;DHT22;8258;51.020;4.248;2022-11-21T10:17:56;9.70;99.90
16301;DHT22;8258;51.020;4.248;2022-11-21T10:20:37;9.40;99.90
16301;DHT22;8258;51.020;4.248;2022-11-21T10:23:16;9.20;99.90
16301;DHT22;8258;51.020;4.248;2022-11-21T10:25:52;9.20;99.90
16301;DHT22;8258;51.020;4.248;2022-11-21T10:28:23;9.10;99.90
16301;DHT22;8258;51.020;4.248;2022-11-21T10:30:56;9.20;99.90
16301;DHT22;8258;51.020;4.248;2022-11-21T10:33:29;9.00;99.90
16301;DHT22;8258;51.020;4.248;2022-11-21T10:35:59;8.70;99.90
16301;DHT22;8258;51.020;4.248;2022-11-21T10:38:28;8.70;99.90
16301;DHT22;8258;51.020;4.248;2022-11-21T10:41:05;8.80;99.90
16301;DHT22;8258;51.020;4.248;2022-11-21T10:43:35;8.70;99.90
16301;DHT22;8258;51.020;4.248;2022-11-21T10:46:24;8.60;99.90
16301;DHT22;8258;51.020;4.248;2022-11-21T10:48:55;8.50;99.90
16301;DHT22;8258;51.020;4.248;2022-11-21T10:51:33;8.40;99.90
16301;DHT22;8258;51.020;4.248;2022-11-21T10:54:04;8.50;99.90
16301;DHT22;8258;51.020;4.248;2022-11-21T10:57:00;8.60;99.90
16301;DHT22;8258;51.020;4.248;2022-11-21T10:59:29;8.60;99.90
16301;DHT22;8258;51.020;4.248;2022-11-21T11:01:59;8.70;99.90
16301;DHT22;8258;51.020;4.248;2022-11-21T11:04:29;8.90;99.90
16301;DHT22;8258;51.020;4.248;2022-11-21T11:06:56;8.70;99.90
16301;DHT22;8258;51.020;4.248;2022-11-21T11:09:27;8.80;99.90
16301;DHT22;8258;51.020;4.248;2022-11-21T11:12:27;8.70;99.90
16301;DHT22;8258;51.020;4.248;2022-11-21T11:15:18;8.70;99.90
16301;DHT22;8258;51.020;4.248;2022-11-21T11:17:51;8.70;99.90
16301;DHT22;8258;51.020;4.248;2022-11-21T11:20:36;8.60;99.90
16301;DHT22;8258;51.020;4.248;2022-11-21T11:23:22;8.60;99.90
16301;DHT22;8258;51.020;4.248;2022-11-21T11:25:50;8.70;99.90
16301;DHT22;8258;51.020;4.248;2022-11-21T11:28:18;8.60;99.90
16301;DHT22;8258;51.020;4.248;2022-11-21T11:30:46;8.70;99.90
16301;DHT22;8258;51.020;4.248;2022-11-21T11:33:36;8.60;99.90
16301;DHT22;8258;51.020;4.248;2022-11-21T11:36:14;8.50;99.90
16301;DHT22;8258;51.020;4.248;2022-11-21T11:38:44;8.50;99.90
16301;DHT22;8258;51.020;4.248;2022-11-21T11:41:24;8.60;99.90
16301;DHT22;8258;51.020;4.248;2022-11-21T11:44:21;8.60;99.90
16301;DHT22;8258;51.020;4.248;2022-11-21T11:47:11;8.60;99.90
16301;DHT22;8258;51.020;4.248;2022-11-21T11:49:59;8.50;99.90
16301;DHT22;8258;51.020;4.248;2022-11-21T11:52:41;8.60;99.90
16301;DHT22;8258;51.020;4.248;2022-11-21T11:55:16;8.70;99.90
16301;DHT22;8258;51.020;4.248;2022-11-21T11:57:46;8.50;99.90
16301;DHT22;8258;51.020;4.248;2022-11-21T12:00:27;8.40;99.90
16301;DHT22;8258;51.020;4.248;2022-11-21T12:02:59;8.60;99.90
16301;DHT22;8258;51.020;4.248;2022-11-21T12:05:30;8.60;99.90
16301;DHT22;8258;51.020;4.248;2022-11-21T12:08:10;8.60;99.90
16301;DHT22;8258;51.020;4.248;2022-11-21T12:10:46;8.60;99.90
16301;DHT22;8258;51.020;4.248;2022-11-21T12:13:35;8.60;99.90
16301;DHT22;8258;51.020;4.248;2022-11-21T12:16:05;8.50;99.90
16301;DHT22;8258;51.020;4.248;2022-11-21T12:18:45;8.50;99.90
16301;DHT22;8258;51.020;4.248;2022-11-21T12:21:16;8.50;99.90
16301;DHT22;8258;51.020;4.248;2022-11-21T12:23:46;8.50;99.90
16301;DHT22;8258;51.020;4.248;2022-11-21T12:26:27;8.50;99.90
16301;DHT22;8258;51.020;4.248;2022-11-21T12:29:06;8.40;99.90
16301;DHT22;8258;51.020;4.248;2022-11-21T12:31:49;8.50;99.90
16301;DHT22;8258;51.020;4.248;2022-11-21T12:34:31;8.50;99.90
16301;DHT22;8258;51.020;4.248;2022-11-21T12:37:10;8.60;99.90
16301;DHT22;8258;51.020;4.248;2022-11-21T12:39:58;8.50;99.90
16301;DHT22;8258;51.020;4.248;2022-11-21T12:42:39;8.60;99.90
16301;DHT22;8258;51.020;4.248;2022-11-21T12:45:36;8.70;99.90
16301;DHT22;8258;51.020;4.248;2022-11-21T12:51:17;8.90;99.90
16301;DHT22;8258;51.020;4.248;2022-11-21T12:54:11;8.90;99.90
16301;DHT22;8258;51.020;4.248;2022-11-21T12:57:04;9.10;99.90
16301;DHT22;8258;51.020;4.248;2022-11-21T12:59:40;9.20;99.90
16301;DHT22;8258;51.020;4.248;2022-11-21T13:02:20;9.20;99.90
16301;DHT22;8258;51.020;4.248;2022-11-21T13:04:51;9.20;99.90
16301;DHT22;8258;51.020;4.248;2022-11-21T13:07:21;9.20;99.90
16301;DHT22;8258;51.020;4.248;2022-11-21T13:09:52;9.20;99.90
16301;DHT22;8258;51.020;4.248;2022-11-21T13:12:25;9.20;99.90
16301;DHT22;8258;51.020;4.248;2022-11-21T13:15:03;9.20;99.90
16301;DHT22;8258;51.020;4.248;2022-11-21T13:17:41;9.20;99.90
16301;DHT22;8258;51.020;4.248;2022-11-21T13:20:29;9.20;99.90
16301;DHT22;8258;51.020;4.248;2022-11-21T13:22:58;9.30;99.90
16301;DHT22;8258;51.020;4.248;2022-11-21T13:25:41;9.20;99.90
16301;DHT22;8258;51.020;4.248;2022-11-21T13:28:37;9.20;99.90
16301;DHT22;8258;51.020;4.248;2022-11-21T13:31:29;9.20;99.90
16301;DHT22;8258;51.020;4.248;2022-11-21T13:33:57;9.20;99.90
16301;DHT22;8258;51.020;4.248;2022-11-21T13:36:40;9.20;99.90
16301;DHT22;8258;51.020;4.248;2022-11-21T13:39:35;9.20;99.90
16301;DHT22;8258;51.020;4.248;2022-11-21T13:42:11;9.10;99.90
16301;DHT22;8258;51.020;4.248;2022-11-21T13:44:56;9.10;99.90
16301;DHT22;8258;51.020;4.248;2022-11-21T13:50:40;9.10;99.90
16301;DHT22;8258;51.020;4.248;2022-11-21T13:53:18;9.10;99.90
16301;DHT22;8258;51.020;4.248;2022-11-21T13:55:55;9.00;99.90
16301;DHT22;8258;51.020;4.248;2022-11-21T13:58:37;9.00;99.90
16301;DHT22;8258;51.020;4.248;2022-11-21T14:01:32;9.10;99.90
16301;DHT22;8258;51.020;4.248;2022-11-21T14:04:27;9.10;99.90
16301;DHT22;8258;51.020;4.248;2022-11-21T14:07:18;9.10;99.90
16301;DHT22;8258;51.020;4.248;2022-11-21T14:09:47;9.10;99.90
16301;DHT22;8258;51.020;4.248;2022-11-21T14:12:20;9.10;99.90
16301;DHT22;8258;51.020;4.248;2022-11-21T14:14:51;9.10;99.90
16301;DHT22;8258;51.020;4.248;2022-11-21T14:17:31;9.10;99.90
16301;DHT22;8258;51.020;4.248;2022-11-21T14:20:06;9.10;99.90
16301;DHT22;8258;51.020;4.248;2022-11-21T14:22:38;9.20;99.90
16301;DHT22;8258;51.020;4.248;2022-11-21T14:25:07;9.10;99.90
16301;DHT22;8258;51.020;4.248;2022-11-21T14:27:38;9.10;99.90
16301;DHT22;8258;51.020;4.248;2022-11-21T14:30:27;9.10;99.90
16301;DHT22;8258;51.020;4.248;2022-11-21T14:32:54;9.10;99.90
16301;DHT22;8258;51.020;4.248;2022-11-21T14:35:22;9.20;99.90
16301;DHT22;8258;51.020;4.248;2022-11-21T14:37:50;9.10;99.90
16301;DHT22;8258;51.020;4.248;2022-11-21T14:40:20;9.20;99.90
16301;DHT22;8258;51.020;4.248;2022-11-21T14:42:47;9.10;99.90
16301;DHT22;8258;51.020;4.248;2022-11-21T14:45:17;9.00;99.90
16301;DHT22;8258;51.020;4.248;2022-11-21T14:47:47;9.00;99.90
16301;DHT22;8258;51.020;4.248;2022-11-21T14:50:23;9.00;99.90
16301;DHT22;8258;51.020;4.248;2022-11-21T14:52:49;9.00;99.90
16301;DHT22;8258;51.020;4.248;2022-11-21T14:55:24;9.00;99.90
16301;DHT22;8258;51.020;4.248;2022-11-21T14:57:52;9.00;99.90
16301;DHT22;8258;51.020;4.248;2022-11-21T15:00:21;9.00;99.90
16301;DHT22;8258;51.020;4.248;2022-11-21T15:02:52;9.00;99.90
16301;DHT22;8258;51.020;4.248;2022-11-21T15:05:21;9.00;99.90
16301;DHT22;8258;51.020;4.248;2022-11-21T15:07:48;8.90;99.90
16301;DHT22;8258;51.020;4.248;2022-11-21T15:10:17;8.90;99.90
16301;DHT22;8258;51.020;4.248;2022-11-21T15:12:51;8.90;99.90
16301;DHT22;8258;51.020;4.248;2022-11-21T15:15:26;8.80;99.90
16301;DHT22;8258;51.020;4.248;2022-11-21T15:17:56;8.80;99.90
16301;DHT22;8258;51.020;4.248;2022-11-21T15:20:24;8.80;99.90
16301;DHT22;8258;51.020;4.248;2022-11-21T15:22:54;8.70;99.90
16301;DHT22;8258;51.020;4.248;2022-11-21T15:25:23;8.70;99.90
16301;DHT22;8258;51.020;4.248;2022-11-21T15:27:51;8.70;99.90
16301;DHT22;8258;51.020;4.248;2022-11-21T15:30:22;8.60;99.90
16301;DHT22;8258;51.020;4.248;2022-11-21T15:33:10;8.70;99.90
16301;DHT22;8258;51.020;4.248;2022-11-21T15:35:45;8.70;99.90
16301;DHT22;8258;51.020;4.248;2022-11-21T15:38:27;8.70;99.90
16301;DHT22;8258;51.020;4.248;2022-11-21T15:41:00;8.70;99.90
16301;DHT22;8258;51.020;4.248;2022-11-21T15:43:35;8.60;99.90
16301;DHT22;8258;51.020;4.248;2022-11-21T15:46:08;8.70;99.90
16301;DHT22;8258;51.020;4.248;2022-11-21T15:48:38;8.60;99.90
16301;DHT22;8258;51.020;4.248;2022-11-21T15:51:08;8.60;99.90
16301;DHT22;8258;51.020;4.248;2022-11-21T15:53:35;8.60;99.90
16301;DHT22;8258;51.020;4.248;2022-11-21T15:56:02;8.60;99.90
16301;DHT22;8258;51.020;4.248;2022-11-21T15:58:29;8.60;99.90
16301;DHT22;8258;51.020;4.248;2022-11-21T16:00:55;8.60;99.90
16301;DHT22;8258;51.020;4.248;2022-11-21T16:03:22;8.60;99.90
16301;DHT22;8258;51.020;4.248;2022-11-21T16:05:51;8.60;99.90
16301;DHT22;8258;51.020;4.248;2022-11-21T16:08:17;8.60;99.90
16301;DHT22;8258;51.020;4.248;2022-11-21T16:10:44;8.50;99.90
16301;DHT22;8258;51.020;4.248;2022-11-21T16:13:11;8.50;99.90
16301;DHT22;8258;51.020;4.248;2022-11-21T16:15:38;8.50;99.90
16301;DHT22;8258;51.020;4.248;2022-11-21T16:18:05;8.50;99.90
16301;DHT22;8258;51.020;4.248;2022-11-21T16:20:32;8.50;99.90
16301;DHT22;8258;51.020;4.248;2022-11-21T16:23:00;8.50;99.90
16301;DHT22;8258;51.020;4.248;2022-11-21T16:25:27;8.40;99.90
16301;DHT22;8258;51.020;4.248;2022-11-21T16:27:55;8.30;99.90
16301;DHT22;8258;51.020;4.248;2022-11-21T16:30:22;8.20;99.90
16301;DHT22;8258;51.020;4.248;2022-11-21T16:32:48;8.10;99.90